Time;durP1;ratioP1;P1;durP2;ratioP2;P2;SDS_P1;SDS_P2;PMS_P1;PMS_P2;Temp;Humidity;BMP_temperature;BMP_pressure;BME280_temperature;BME280_humidity;BME280_pressure;Samples;Min_cycle;Max_cycle;Signal;HPM_P1;HPM_P2
2022/05/31 00:00:28;;;;;;;4.45;2.63;;;7.00;99.90;;;;;;5051230;28;21231;-41
2022/05/31 00:02:56;;;;;;;6.40;3.80;;;6.90;99.90;;;;;;5068007;28;20055;-42
2022/05/31 00:05:22;;;;;;;6.50;2.60;;;7.10;99.90;;;;;;5084930;28;20249;-41
2022/05/31 00:07:48;;;;;;;4.68;2.78;;;7.00;99.90;;;;;;5050782;28;20040;-40
2022/05/31 00:10:15;;;;;;;4.95;3.25;;;6.90;99.90;;;;;;5051215;28;20047;-41
2022/05/31 00:12:42;;;;;;;7.32;3.53;;;7.00;99.90;;;;;;5049462;28;20089;-41
2022/05/31 00:15:10;;;;;;;6.03;3.38;;;4.90;99.90;;;;;;5052198;28;20052;-42
2022/05/31 00:17:36;;;;;;;6.40;4.03;;;8.30;99.90;;;;;;5083759;28;20050;-41
2022/05/31 00:20:04;;;;;;;12.10;3.50;;;7.40;99.90;;;;;;5033637;28;20794;-43
2022/05/31 00:22:33;;;;;;;7.35;3.90;;;7.20;99.90;;;;;;5022403;28;20047;-42
2022/05/31 00:24:59;;;;;;;5.80;3.88;;;7.00;99.90;;;;;;5050714;28;20821;-41
2022/05/31 00:27:26;;;;;;;6.32;3.75;;;8.10;99.90;;;;;;5049374;28;20145;-41
2022/05/31 00:29:52;;;;;;;7.10;3.47;;;7.00;99.90;;;;;;5032734;28;20045;-42
2022/05/31 00:32:30;;;;;;;5.88;4.03;;;7.10;99.90;;;;;;5051130;28;20539;-41
2022/05/31 00:34:59;;;;;;;5.63;3.97;;;7.20;99.90;;;;;;5084180;28;20480;-41
2022/05/31 00:37:27;;;;;;;4.93;3.42;;;7.30;99.90;;;;;;5051403;28;20413;-41
2022/05/31 00:39:52;;;;;;;5.93;3.47;;;7.20;99.90;;;;;;5050169;28;20052;-41
2022/05/31 00:42:21;;;;;;;7.22;3.85;;;7.10;99.90;;;;;;5050020;28;20056;-41
2022/05/31 00:44:49;;;;;;;6.85;3.65;;;7.90;99.90;;;;;;5050950;28;20556;-41
2022/05/31 00:47:27;;;;;;;5.90;3.70;;;5.40;99.90;;;;;;5043342;28;20496;-42
2022/05/31 00:49:58;;;;;;;7.03;4.10;;;7.20;99.90;;;;;;5083660;28;20036;-41
2022/05/31 00:52:33;;;;;;;5.63;3.65;;;7.20;99.90;;;;;;5050570;28;20358;-44
2022/05/31 00:55:19;;;;;;;6.15;3.80;;;7.20;99.90;;;;;;5050826;28;20041;-43
2022/05/31 00:57:57;;;;;;;6.90;3.70;;;7.40;99.90;;;;;;5029367;28;20049;-40
2022/05/31 01:00:23;;;;;;;5.80;4.45;;;7.30;99.90;;;;;;5013364;28;20056;-41
2022/05/31 01:02:50;;;;;;;9.27;4.28;;;7.30;99.90;;;;;;5013403;28;20531;-41
2022/05/31 01:05:17;;;;;;;5.63;3.78;;;7.40;99.90;;;;;;5013780;28;20041;-40
2022/05/31 01:07:42;;;;;;;6.47;3.70;;;7.40;99.90;;;;;;5013178;28;20076;-40
2022/05/31 01:10:10;;;;;;;7.38;4.70;;;9.40;99.90;;;;;;4997189;28;20064;-40
2022/05/31 01:12:39;;;;;;;7.53;4.45;;;7.60;99.90;;;;;;5013050;28;20045;-41
2022/05/31 01:15:06;;;;;;;6.47;4.68;;;7.60;99.90;;;;;;5013445;28;20357;-41
2022/05/31 01:17:32;;;;;;;6.82;4.82;;;7.70;99.90;;;;;;4995113;28;20053;-43
2022/05/31 01:20:06;;;;;;;6.25;4.53;;;7.90;99.90;;;;;;5012816;28;20079;-41
2022/05/31 01:22:49;;;;;;;8.20;5.40;;;7.90;99.90;;;;;;5031697;28;20490;-43
2022/05/31 01:25:58;;;;;;;7.82;4.15;;;7.90;99.90;;;;;;5016727;28;20049;-41
2022/05/31 01:28:42;;;;;;;9.45;4.70;;;7.80;99.90;;;;;;5015826;28;20045;-41
2022/05/31 01:31:26;;;;;;;6.38;4.47;;;7.80;99.90;;;;;;5032426;28;20776;-41
2022/05/31 01:34:05;;;;;;;5.47;4.10;;;7.90;99.90;;;;;;5033206;28;20049;-43
2022/05/31 01:36:48;;;;;;;6.30;4.15;;;7.90;99.90;;;;;;5052463;28;21071;-41
2022/05/31 01:39:20;;;;;;;5.85;4.20;;;8.00;99.90;;;;;;5053691;28;20087;-42
2022/05/31 01:41:51;;;;;;;;;;;8.60;99.90;;;;;;5049355;28;20067;-41
2022/05/31 01:44:21;;;;;;;5.78;3.95;;;8.00;99.90;;;;;;5036998;28;20111;-41
2022/05/31 01:46:49;;;;;;;7.32;4.55;;;8.00;99.90;;;;;;5053644;28;20053;-41
2022/05/31 01:49:18;;;;;;;5.60;3.83;;;7.90;99.90;;;;;;5053325;28;20492;-40
2022/05/31 01:51:44;;;;;;;7.25;4.72;;;8.30;99.90;;;;;;5052769;28;20037;-41
2022/05/31 01:54:14;;;;;;;5.25;4.00;;;7.80;99.90;;;;;;5052436;28;20402;-45
2022/05/31 01:56:42;;;;;;;5.70;3.90;;;8.00;99.90;;;;;;5053835;28;20072;-42
2022/05/31 01:59:09;;;;;;;7.47;4.00;;;8.00;99.90;;;;;;5053557;28;20109;-41
2022/05/31 02:01:37;;;;;;;6.10;4.30;;;7.80;99.90;;;;;;5053348;28;20122;-44
2022/05/31 02:04:03;;;;;;;5.55;4.00;;;8.20;99.90;;;;;;5053154;28;20040;-43
2022/05/31 02:06:39;;;;;;;6.40;4.60;;;8.10;99.90;;;;;;5052971;28;20067;-42
2022/05/31 02:09:07;;;;;;;6.18;3.67;;;8.10;99.90;;;;;;5052362;28;20040;-43
2022/05/31 02:11:34;;;;;;;6.00;3.90;;;8.00;99.90;;;;;;5052655;28;20170;-44
2022/05/31 02:14:01;;;;;;;5.47;3.80;;;7.90;99.90;;;;;;5053382;28;20047;-42
2022/05/31 02:16:27;;;;;;;6.80;3.88;;;8.00;99.90;;;;;;5088256;28;20052;-44
2022/05/31 02:21:40;;;;;;;5.88;3.63;;;8.10;99.90;;;;;;5053304;28;20245;-44
2022/05/31 02:24:12;;;;;;;7.70;4.15;;;8.90;99.90;;;;;;5036917;28;20072;-42
2022/05/31 02:26:41;;;;;;;6.13;4.03;;;8.00;99.90;;;;;;5071102;28;20083;-42
2022/05/31 02:29:12;;;;;;;6.55;4.20;;;7.90;99.90;;;;;;5054033;28;20053;-42
2022/05/31 02:31:39;;;;;;;7.53;4.30;;;7.40;99.90;;;;;;5054178;28;20412;-42
2022/05/31 02:34:05;;;;;;;7.07;3.90;;;7.90;99.90;;;;;;5052827;28;20421;-42
2022/05/31 02:36:34;;;;;;;6.45;3.78;;;8.10;99.90;;;;;;5052810;28;20094;-41
2022/05/31 02:39:02;;;;;;;6.18;3.47;;;8.00;99.90;;;;;;5053173;28;20083;-41
2022/05/31 02:41:29;;;;;;;6.30;4.07;;;7.90;99.90;;;;;;5035646;28;20040;-41
2022/05/31 02:43:55;;;;;;;9.07;4.25;;;8.00;99.90;;;;;;5034320;28;20051;-41
2022/05/31 02:46:22;;;;;;;5.38;4.10;;;8.00;99.90;;;;;;5036948;28;20071;-40
2022/05/31 02:48:49;;;;;;;6.85;4.32;;;8.40;99.90;;;;;;5033230;28;20471;-41
2022/05/31 02:51:15;;;;;;;6.22;4.18;;;8.00;99.90;;;;;;5052783;28;20066;-41
2022/05/31 02:53:44;;;;;;;6.95;4.38;;;8.40;99.90;;;;;;5053251;28;20048;-41
2022/05/31 02:56:10;;;;;;;6.40;4.40;;;7.90;99.90;;;;;;5053324;28;20094;-42
2022/05/31 02:58:36;;;;;;;6.85;4.22;;;10.10;99.90;;;;;;5031708;28;20170;-41
2022/05/31 03:01:01;;;;;;;6.75;4.47;;;7.90;99.90;;;;;;5035203;28;20115;-41
2022/05/31 03:03:27;;;;;;;8.40;4.53;;;8.10;99.90;;;;;;5052267;28;20044;-40
2022/05/31 03:05:53;;;;;;;7.00;4.78;;;7.80;99.90;;;;;;5035841;28;20060;-42
2022/05/31 03:08:20;;;;;;;7.00;4.60;;;8.00;99.90;;;;;;5035025;28;20072;-44
2022/05/31 03:10:50;;;;;;;6.35;4.53;;;8.10;99.90;;;;;;5052069;28;20065;-40
2022/05/31 03:13:23;;;;;;;6.45;4.40;;;9.30;99.90;;;;;;5052311;28;20041;-40
2022/05/31 03:15:50;;;;;;;6.60;4.35;;;8.10;99.90;;;;;;5036785;28;20625;-41
2022/05/31 03:18:20;;;;;;;7.57;4.32;;;8.00;99.90;;;;;;5052444;28;20497;-42
2022/05/31 03:20:53;;;;;;;7.82;4.82;;;8.00;99.90;;;;;;5051353;28;20060;-41
2022/05/31 03:23:25;;;;;;;6.28;4.50;;;8.30;99.90;;;;;;5051134;28;20052;-41
2022/05/31 03:25:55;;;;;;;7.72;4.82;;;7.90;99.90;;;;;;5051944;28;20043;-41
2022/05/31 03:28:22;;;;;;;8.63;4.72;;;8.00;99.90;;;;;;5051398;28;20051;-40
2022/05/31 03:30:47;;;;;;;6.60;4.60;;;8.00;99.90;;;;;;5050810;28;20416;-40
2022/05/31 03:33:14;;;;;;;6.95;4.63;;;9.60;99.90;;;;;;5051589;28;20040;-41
2022/05/31 03:35:41;;;;;;;6.28;4.55;;;8.00;99.90;;;;;;5051905;28;20048;-42
2022/05/31 03:38:07;;;;;;;7.32;5.00;;;8.50;99.90;;;;;;5053726;28;20051;-40
2022/05/31 03:43:19;;;;;;;8.20;4.57;;;8.00;99.90;;;;;;5051248;28;20075;-41
2022/05/31 03:45:45;;;;;;;7.88;4.50;;;8.90;99.90;;;;;;5048492;28;20127;-43
2022/05/31 03:48:12;;;;;;;6.53;4.47;;;8.10;99.90;;;;;;5053543;28;20041;-46
2022/05/31 03:50:40;;;;;;;7.28;4.85;;;8.10;99.90;;;;;;5033239;28;20057;-41
2022/05/31 03:53:10;;;;;;;7.50;4.80;;;8.10;99.90;;;;;;5051051;28;20059;-43
2022/05/31 03:55:44;;;;;;;8.25;5.18;;;9.10;99.90;;;;;;5033653;28;20396;-40
2022/05/31 03:58:10;;;;;;;7.38;4.95;;;8.10;99.90;;;;;;5052718;28;20400;-42
2022/05/31 04:00:37;;;;;;;8.10;4.95;;;8.30;99.90;;;;;;5051109;28;20044;-42
2022/05/31 04:03:05;;;;;;;6.47;4.32;;;9.40;99.90;;;;;;5051627;28;20083;-42
2022/05/31 04:05:30;;;;;;;6.25;4.68;;;8.20;99.90;;;;;;5050890;28;20033;-41
2022/05/31 04:08:02;;;;;;;6.15;4.47;;;8.20;99.90;;;;;;5049783;28;20033;-42
2022/05/31 04:10:30;;;;;;;6.95;4.53;;;8.30;99.90;;;;;;5029116;28;20140;-42
2022/05/31 04:12:56;;;;;;;6.57;4.57;;;8.90;99.90;;;;;;5051045;28;20044;-40
2022/05/31 04:15:22;;;;;;;6.32;4.60;;;8.80;99.90;;;;;;5086117;28;20401;-41
2022/05/31 04:17:49;;;;;;;9.30;5.93;;;9.30;99.90;;;;;;5052151;28;20480;-41
2022/05/31 04:20:15;;;;;;;8.80;4.80;;;8.40;99.90;;;;;;5051266;28;20051;-40
2022/05/31 04:22:41;;;;;;;7.13;5.00;;;8.30;99.90;;;;;;5050948;28;20040;-41
2022/05/31 04:25:06;;;;;;;7.57;4.80;;;8.30;99.90;;;;;;5049377;28;20101;-42
2022/05/31 04:27:32;;;;;;;7.97;5.13;;;8.20;99.90;;;;;;5066562;28;20084;-40
2022/05/31 04:29:58;;;;;;;7.30;4.93;;;8.30;99.90;;;;;;5050732;28;20044;-40
2022/05/31 04:32:24;;;;;;;7.68;4.75;;;8.90;99.90;;;;;;5050188;28;20040;-41
2022/05/31 04:34:50;;;;;;;8.48;5.45;;;8.40;99.90;;;;;;5047496;28;20345;-41
2022/05/31 04:37:17;;;;;;;9.73;5.80;;;9.90;99.90;;;;;;5048797;28;20623;-40
2022/05/31 04:39:44;;;;;;;7.28;5.05;;;8.60;99.90;;;;;;5049353;28;20041;-41
2022/05/31 04:42:11;;;;;;;10.18;5.15;;;8.50;99.90;;;;;;5049599;28;20385;-40
2022/05/31 04:44:37;;;;;;;8.85;4.90;;;8.60;99.90;;;;;;5049162;28;20117;-41
2022/05/31 04:47:03;;;;;;;7.45;4.78;;;8.50;99.90;;;;;;5052198;28;20058;-43
2022/05/31 04:49:29;;;;;;;8.88;5.00;;;8.60;99.90;;;;;;5051090;28;20105;-41
2022/05/31 04:51:55;;;;;;;8.18;5.03;;;8.40;99.90;;;;;;5050246;28;20052;-40
2022/05/31 04:54:24;;;;;;;10.77;5.00;;;8.50;99.90;;;;;;5051082;28;20040;-41
2022/05/31 04:56:52;;;;;;;9.95;5.75;;;8.60;99.90;;;;;;5050858;28;20068;-40
2022/05/31 04:59:19;;;;;;;7.53;5.13;;;9.30;99.90;;;;;;5050311;28;20049;-42
2022/05/31 05:01:47;;;;;;;8.23;5.05;;;10.40;99.90;;;;;;5044211;28;20124;-41
2022/05/31 05:04:13;;;;;;;6.72;4.60;;;8.60;99.90;;;;;;5043676;28;20185;-41
2022/05/31 05:06:39;;;;;;;9.98;5.88;;;8.80;99.90;;;;;;5050404;28;20044;-40
2022/05/31 05:09:07;;;;;;;6.90;4.90;;;11.00;99.90;;;;;;5052252;28;20052;-41
2022/05/31 05:11:33;;;;;;;7.28;5.03;;;10.90;99.90;;;;;;5050217;28;20315;-40
2022/05/31 05:13:59;;;;;;;9.55;5.15;;;9.00;99.90;;;;;;5050852;28;21205;-42
2022/05/31 05:16:25;;;;;;;6.65;5.05;;;9.00;99.90;;;;;;5051443;28;20132;-40
2022/05/31 05:18:51;;;;;;;7.20;5.50;;;9.20;99.90;;;;;;5049448;28;20685;-42
2022/05/31 05:21:17;;;;;;;7.10;5.50;;;9.30;99.90;;;;;;5032195;28;20040;-41
2022/05/31 05:23:45;;;;;;;15.95;6.97;;;9.30;99.90;;;;;;5049546;28;20040;-42
2022/05/31 05:26:12;;;;;;;6.57;5.35;;;10.10;99.90;;;;;;5050111;28;20596;-41
2022/05/31 05:31:30;;;;;;;8.38;4.88;;;9.30;99.90;;;;;;5050621;28;20063;-43
2022/05/31 05:33:58;;;;;;;7.85;4.97;;;9.50;99.90;;;;;;5048673;28;20110;-41
2022/05/31 05:36:24;;;;;;;7.05;5.28;;;10.80;99.90;;;;;;5049477;28;20577;-43
2022/05/31 05:38:50;;;;;;;6.13;4.95;;;9.60;99.90;;;;;;5051443;28;20433;-42
2022/05/31 05:41:18;;;;;;;9.38;4.75;;;10.90;99.90;;;;;;5049292;28;20736;-41
2022/05/31 05:43:44;;;;;;;7.35;5.15;;;11.50;99.90;;;;;;5049109;28;20072;-41
2022/05/31 05:46:19;;;;;;;7.28;4.78;;;10.80;99.90;;;;;;5046926;28;20532;-42
2022/05/31 05:48:45;;;;;;;7.07;5.22;;;9.80;99.90;;;;;;5049474;28;20040;-44
2022/05/31 05:51:20;;;;;;;6.28;5.07;;;9.60;99.90;;;;;;5067133;28;20084;-41
2022/05/31 05:53:46;;;;;;;9.45;5.30;;;9.80;99.90;;;;;;5032816;28;20515;-42
2022/05/31 05:56:13;;;;;;;7.30;4.97;;;9.70;99.90;;;;;;5083348;28;20119;-41
2022/05/31 05:58:40;;;;;;;6.95;4.68;;;9.90;99.90;;;;;;5032806;28;20052;-42
2022/05/31 06:01:11;;;;;;;7.57;5.20;;;10.00;99.90;;;;;;5043428;28;20064;-41
2022/05/31 06:03:47;;;;;;;9.48;5.38;;;11.40;99.90;;;;;;5047885;28;20055;-40
2022/05/31 06:06:17;;;;;;;7.15;4.68;;;9.90;99.90;;;;;;5047290;28;20450;-41
2022/05/31 06:08:45;;;;;;;8.40;4.93;;;11.60;99.90;;;;;;5049243;28;20036;-45
2022/05/31 06:11:21;;;;;;;10.27;5.13;;;10.10;99.90;;;;;;5051208;28;20170;-41
2022/05/31 06:14:27;;;;;;;7.43;4.68;;;10.10;99.90;;;;;;5051661;28;20123;-42
2022/05/31 06:16:57;;;;;;;9.25;5.50;;;10.20;99.90;;;;;;5051108;28;21010;-40
2022/05/31 06:19:29;;;;;;;8.38;5.20;;;10.30;99.90;;;;;;5034238;28;20087;-41
2022/05/31 06:21:55;;;;;;;5.90;4.55;;;11.20;99.90;;;;;;5035075;28;20044;-42
2022/05/31 06:24:23;;;;;;;6.47;4.63;;;10.40;99.90;;;;;;5034532;28;20048;-41
2022/05/31 06:26:49;;;;;;;6.90;4.95;;;10.40;99.90;;;;;;5034352;28;20033;-43
2022/05/31 06:29:15;;;;;;;7.82;4.57;;;11.10;99.90;;;;;;5036065;28;20044;-41
2022/05/31 06:31:41;;;;;;;6.15;4.53;;;10.30;99.90;;;;;;5032701;28;20056;-43
2022/05/31 06:34:07;;;;;;;8.13;4.93;;;10.30;99.90;;;;;;5033155;28;20053;-41
2022/05/31 06:36:33;;;;;;;8.13;4.70;;;10.60;99.90;;;;;;5034659;28;20276;-43
2022/05/31 06:38:58;;;;;;;8.25;5.07;;;10.60;99.90;;;;;;5050822;28;20044;-45
2022/05/31 06:41:24;;;;;;;6.82;4.93;;;10.50;99.90;;;;;;5033197;28;20234;-41
2022/05/31 06:43:50;;;;;;;7.80;4.72;;;10.70;99.90;;;;;;5066896;28;20293;-42
2022/05/31 06:46:16;;;;;;;7.25;4.93;;;10.70;99.90;;;;;;5016531;28;20036;-42
2022/05/31 06:48:43;;;;;;;8.77;4.60;;;10.80;99.90;;;;;;5032385;28;20083;-41
2022/05/31 06:51:12;;;;;;;6.75;4.47;;;10.80;99.90;;;;;;5033411;28;20386;-41
2022/05/31 06:58:57;;;;;;;9.38;4.50;;;11.30;99.90;;;;;;5051041;28;20040;-41
2022/05/31 07:01:30;;;;;;;6.57;4.50;;;12.60;99.90;;;;;;5050968;28;20044;-41
2022/05/31 07:03:58;;;;;;;7.00;4.72;;;13.10;99.90;;;;;;5050984;28;20139;-42
2022/05/31 07:06:24;;;;;;;6.95;4.80;;;11.60;99.90;;;;;;5035365;28;20043;-41
2022/05/31 07:08:49;;;;;;;7.43;4.28;;;11.90;99.90;;;;;;5051124;28;20766;-41
2022/05/31 07:11:15;;;;;;;5.50;4.28;;;12.30;99.90;;;;;;5050931;28;20186;-40
2022/05/31 07:13:41;;;;;;;7.20;4.20;;;12.50;99.90;;;;;;5050567;28;20163;-44
2022/05/31 07:16:06;;;;;;;5.78;3.92;;;13.50;99.90;;;;;;5053267;28;20127;-41
2022/05/31 07:18:32;;;;;;;8.73;4.40;;;12.10;99.90;;;;;;5051897;28;20139;-42
2022/05/31 07:20:58;;;;;;;8.63;4.28;;;12.60;99.90;;;;;;5051023;28;20181;-42
2022/05/31 07:23:24;;;;;;;8.40;3.75;;;13.30;99.90;;;;;;5052382;28;20052;-44
2022/05/31 07:25:49;;;;;;;7.00;4.35;;;13.10;99.90;;;;;;5050003;28;20139;-41
2022/05/31 07:28:15;;;;;;;5.70;3.42;;;16.10;99.90;;;;;;5034430;28;20044;-42
2022/05/31 07:30:41;;;;;;;6.95;3.63;;;15.00;99.90;;;;;;5052114;28;20060;-45
2022/05/31 07:33:06;;;;;;;6.07;4.03;;;15.80;99.90;;;;;;5051046;28;20924;-41
2022/05/31 07:35:37;;;;;;;5.43;3.40;;;16.50;99.90;;;;;;5050689;28;20201;-43
2022/05/31 07:38:03;;;;;;;6.32;3.58;;;17.20;99.90;;;;;;5049773;28;20072;-42
2022/05/31 07:40:29;;;;;;;5.95;3.05;;;17.70;99.90;;;;;;5050918;28;20044;-41
2022/05/31 07:42:58;;;;;;;8.25;3.63;;;20.10;99.90;;;;;;5052228;28;20496;-45
2022/05/31 07:45:24;;;;;;;6.25;2.78;;;19.60;99.90;;;;;;5034479;28;20364;-42
2022/05/31 07:47:49;;;;;;;6.90;2.88;;;17.00;99.90;;;;;;5052228;28;20432;-42
2022/05/31 07:50:15;;;;;;;4.68;2.97;;;16.80;99.90;;;;;;5051507;28;20047;-42
2022/05/31 07:52:41;;;;;;;5.43;2.70;;;17.20;99.90;;;;;;5068366;28;20072;-43
2022/05/31 07:55:08;;;;;;;4.60;2.63;;;17.10;99.90;;;;;;5051386;28;20047;-41
2022/05/31 08:00:20;;;;;;;5.43;2.85;;;16.80;99.90;;;;;;5054295;28;20071;-42
2022/05/31 08:02:46;;;;;;;5.57;2.90;;;16.40;99.90;;;;;;5050955;28;20033;-41
2022/05/31 08:05:13;;;;;;;4.18;2.20;;;16.10;99.90;;;;;;5052952;28;20122;-42
2022/05/31 08:07:40;;;;;;;5.55;2.47;;;16.90;99.90;;;;;;5032014;28;20041;-42
2022/05/31 08:10:10;;;;;;;5.43;2.40;;;17.50;99.90;;;;;;5033783;28;20117;-41
2022/05/31 08:12:36;;;;;;;5.57;2.70;;;16.10;99.90;;;;;;5050572;28;20095;-41
2022/05/31 08:15:04;;;;;;;4.45;2.13;;;16.10;99.90;;;;;;5051646;28;20156;-43
2022/05/31 08:17:29;;;;;;;8.23;2.38;;;15.90;99.90;;;;;;5086440;28;20409;-43
2022/05/31 08:19:56;;;;;;;7.75;3.08;;;16.60;99.90;;;;;;5032497;28;20048;-43
2022/05/31 08:22:23;;;;;;;5.47;2.95;;;16.10;99.90;;;;;;5050323;28;20052;-43
2022/05/31 08:24:49;;;;;;;7.03;2.40;;;15.90;99.90;;;;;;5033427;28;20052;-42
2022/05/31 08:27:15;;;;;;;8.98;2.40;;;15.80;99.90;;;;;;5052106;28;20155;-42
2022/05/31 08:29:41;;;;;;;5.63;2.45;;;15.80;99.90;;;;;;5033419;28;20045;-43
2022/05/31 08:32:07;;;;;;;5.45;2.50;;;15.70;99.90;;;;;;5050247;28;20044;-43
2022/05/31 08:34:33;;;;;;;7.28;2.60;;;16.10;99.90;;;;;;5052837;28;20102;-41
2022/05/31 08:36:59;;;;;;;4.68;2.40;;;16.70;99.90;;;;;;5050688;28;20053;-44
2022/05/31 08:39:26;;;;;;;7.85;2.67;;;18.90;99.90;;;;;;5034311;28;20167;-43
2022/05/31 08:42:01;;;;;;;7.95;2.95;;;18.40;99.90;;;;;;5049471;28;20055;-42
2022/05/31 08:45:03;;;;;;;6.22;1.98;;;18.90;99.90;;;;;;5048579;28;20394;-43
2022/05/31 08:47:53;;;;;;;6.57;2.10;;;19.20;99.90;;;;;;5084999;28;20052;-44
2022/05/31 08:53:24;;;;;;;7.78;1.90;;;19.90;99.90;;;;;;5051656;28;20405;-42
2022/05/31 08:58:57;;;;;;;6.93;2.58;;;21.90;99.90;;;;;;5084661;28;20078;-44
2022/05/31 09:01:28;;;;;;;7.28;2.97;;;20.30;99.90;;;;;;5051232;28;20044;-43
2022/05/31 09:04:15;;;;;;;7.75;2.83;;;20.20;99.90;;;;;;5050731;28;20044;-42
2022/05/31 09:06:55;;;;;;;8.82;2.50;;;20.30;99.90;;;;;;5067771;28;20068;-41
2022/05/31 09:09:26;;;;;;;8.60;3.10;;;20.50;99.90;;;;;;5051816;28;20048;-42
2022/05/31 09:12:32;;;;;;;7.68;3.50;;;20.20;99.90;;;;;;5053010;28;20443;-42
2022/05/31 09:15:18;;;;;;;7.28;3.20;;;20.40;99.90;;;;;;5050562;28;20052;-42
2022/05/31 09:18:16;;;;;;;14.68;3.60;;;22.50;99.90;;;;;;5051405;28;20033;-43
2022/05/31 09:20:50;;;;;;;7.32;3.50;;;20.00;99.90;;;;;;5051543;28;20044;-41
2022/05/31 09:23:28;;;;;;;7.20;3.13;;;19.40;99.90;;;;;;5050328;28;20052;-41
2022/05/31 09:26:23;;;;;;;9.57;3.42;;;19.60;99.90;;;;;;5049798;28;20045;-45
2022/05/31 09:29:00;;;;;;;6.72;2.90;;;19.40;99.90;;;;;;5033029;28;20060;-43
2022/05/31 09:31:37;;;;;;;8.68;4.28;;;19.00;99.90;;;;;;5051558;28;20045;-41
2022/05/31 09:34:06;;;;;;;7.90;2.70;;;19.10;99.90;;;;;;5050020;28;20409;-44
2022/05/31 09:36:42;;;;;;;7.13;3.40;;;21.10;99.90;;;;;;5052024;28;20879;-43
2022/05/31 09:39:39;;;;;;;9.10;3.63;;;19.30;99.90;;;;;;5082356;28;20600;-42
2022/05/31 09:42:22;;;;;;;8.02;3.20;;;18.90;99.90;;;;;;5083954;28;20044;-42
2022/05/31 09:44:55;;;;;;;8.68;3.67;;;18.20;99.90;;;;;;5051647;28;20041;-42
2022/05/31 09:47:28;;;;;;;7.53;3.17;;;18.70;99.90;;;;;;5052058;28;20074;-42
2022/05/31 09:49:54;;;;;;;6.25;3.30;;;18.20;99.90;;;;;;5052979;28;20060;-43
2022/05/31 09:52:35;;;;;;;7.70;3.38;;;18.10;99.90;;;;;;5035879;28;20045;-43
2022/05/31 09:58:09;;;;;;;7.25;3.10;;;17.50;99.90;;;;;;5052528;28;20186;-43
2022/05/31 10:00:56;;;;;;;8.07;3.50;;;17.40;99.90;;;;;;5051864;28;20044;-44
2022/05/31 10:03:38;;;;;;;7.70;3.17;;;17.40;99.90;;;;;;5051179;28;20547;-43
2022/05/31 10:06:12;;;;;;;;;;;17.40;99.90;;;;;;5053777;28;20143;-46
2022/05/31 10:08:38;;;;;;;9.60;4.00;;;17.80;99.90;;;;;;5052296;28;19932;-47
2022/05/31 10:11:08;;;;;;;7.55;3.80;;;18.20;99.90;;;;;;5053750;28;20037;-44
2022/05/31 10:13:38;;;;;;;6.97;3.63;;;18.20;99.90;;;;;;5051608;28;20715;-44
2022/05/31 10:16:25;;;;;;;9.63;3.40;;;18.30;99.90;;;;;;5054021;28;20079;-46
2022/05/31 10:18:53;;;;;;;10.43;4.32;;;19.80;99.90;;;;;;5087487;28;20071;-45
2022/05/31 10:21:30;;;;;;;7.60;3.50;;;17.90;99.90;;;;;;5053702;28;20615;-47
2022/05/31 10:24:05;;;;;;;9.15;3.15;;;18.00;99.90;;;;;;5051788;28;20084;-44
2022/05/31 10:26:33;;;;;;;8.50;3.75;;;17.70;99.90;;;;;;5052784;28;20072;-41
2022/05/31 10:29:06;;;;;;;9.02;4.20;;;17.80;99.90;;;;;;5035586;28;20040;-43
2022/05/31 10:31:35;;;;;;;7.38;3.75;;;17.70;99.90;;;;;;5053649;28;20127;-45
2022/05/31 10:34:06;;;;;;;9.20;3.67;;;18.10;99.90;;;;;;5053957;28;20102;-47
2022/05/31 10:36:52;;;;;;;6.28;3.15;;;18.40;99.90;;;;;;5051575;28;20087;-47
2022/05/31 10:39:22;;;;;;;9.07;3.58;;;18.50;99.90;;;;;;5085582;28;20055;-46
2022/05/31 10:41:49;;;;;;;9.20;3.10;;;18.50;99.90;;;;;;5053902;28;20040;-47
2022/05/31 10:44:45;;;;;;;9.27;3.78;;;19.80;99.90;;;;;;5051632;28;20055;-44
2022/05/31 10:47:16;;;;;;;8.23;3.28;;;18.10;99.90;;;;;;5084373;28;20552;-42
2022/05/31 10:49:43;;;;;;;;;;;17.70;99.90;;;;;;5035924;28;20044;-43
2022/05/31 10:52:35;;;;;;;8.73;4.07;;;17.20;99.90;;;;;;5082598;28;19924;-44
2022/05/31 10:55:36;;;;;;;9.18;3.38;;;17.00;99.90;;;;;;5049876;28;20136;-48
2022/05/31 10:58:14;;;;;;;8.90;3.25;;;16.70;99.90;;;;;;5084327;28;20604;-44
2022/05/31 11:00:46;;;;;;;6.90;3.38;;;16.40;99.90;;;;;;5035595;28;20036;-45
2022/05/31 11:03:25;;;;;;;;;;;16.30;99.90;;;;;;5052850;28;20366;-46
2022/05/31 11:05:56;;;;;;;9.65;3.85;;;16.20;99.90;;;;;;5053293;28;20011;-47
2022/05/31 11:11:33;;;;;;;7.72;3.50;;;16.40;99.90;;;;;;5085866;28;20052;-46
2022/05/31 11:14:13;;;;;;;7.97;3.75;;;17.60;99.90;;;;;;5050615;28;20068;-44
2022/05/31 11:16:54;;;;;;;8.75;3.42;;;16.50;99.90;;;;;;5051582;28;20044;-46
2022/05/31 11:19:44;;;;;;;9.60;3.60;;;16.60;99.90;;;;;;5052709;28;20080;-48
2022/05/31 11:22:31;;;;;;;7.53;3.08;;;16.40;99.90;;;;;;5049794;28;20123;-47
2022/05/31 11:25:00;;;;;;;7.55;4.05;;;17.00;99.90;;;;;;5051162;28;20526;-47
2022/05/31 11:28:10;;;;;;;9.70;3.85;;;17.10;99.90;;;;;;5052015;28;20053;-45
2022/05/31 11:30:54;;;;;;;7.07;3.50;;;17.00;99.90;;;;;;4975604;28;20157;-45
2022/05/31 11:33:57;;;;;;;9.52;3.88;;;17.10;99.90;;;;;;4972840;28;20049;-44
2022/05/31 11:36:44;;;;;;;9.27;3.80;;;19.40;99.90;;;;;;5007387;28;20057;-47
2022/05/31 11:39:42;;;;;;;8.25;3.78;;;17.50;99.90;;;;;;4991953;28;20094;-47
2022/05/31 11:42:39;;;;;;;6.95;3.58;;;17.50;99.90;;;;;;5007389;28;20045;-47
2022/05/31 11:45:31;;;;;;;8.15;3.58;;;17.50;99.90;;;;;;4989969;28;20057;-47
2022/05/31 11:48:14;;;;;;;6.57;3.47;;;17.40;99.90;;;;;;4976198;28;20061;-47
2022/05/31 11:51:08;;;;;;;7.97;3.20;;;17.30;99.90;;;;;;5004897;28;20045;-42
2022/05/31 11:53:52;;;;;;;8.55;3.40;;;17.20;99.90;;;;;;5005366;28;20107;-42
2022/05/31 11:56:41;;;;;;;9.07;3.67;;;17.50;99.90;;;;;;5006318;28;20133;-41
2022/05/31 11:59:16;;;;;;;11.15;3.60;;;17.10;99.90;;;;;;4989705;28;20568;-42
2022/05/31 12:02:12;;;;;;;6.63;3.53;;;17.20;99.90;;;;;;5005814;28;20052;-43
2022/05/31 12:04:46;;;;;;;6.97;3.10;;;16.90;99.90;;;;;;5047048;28;20062;-43
2022/05/31 12:07:21;;;;;;;7.30;3.38;;;16.90;99.90;;;;;;5051030;28;20048;-45
2022/05/31 12:09:51;;;;;;;8.25;3.45;;;17.30;99.90;;;;;;5085131;28;20044;-42
2022/05/31 12:12:19;;;;;;;8.70;3.00;;;16.90;99.90;;;;;;5051389;28;20497;-45
2022/05/31 12:14:52;;;;;;;9.50;4.05;;;16.90;99.90;;;;;;5050326;28;20045;-43
2022/05/31 12:17:22;;;;;;;7.80;3.50;;;16.90;99.90;;;;;;5049633;28;20063;-44
2022/05/31 12:20:04;;;;;;;8.10;3.40;;;18.80;99.90;;;;;;5051412;28;20044;-42
2022/05/31 12:22:36;;;;;;;6.75;3.40;;;16.70;99.90;;;;;;5033695;28;20044;-42
2022/05/31 12:25:10;;;;;;;6.75;3.38;;;16.50;99.90;;;;;;5049519;28;20062;-43
2022/05/31 12:28:06;;;;;;;8.70;3.42;;;18.50;99.90;;;;;;5049525;28;20037;-44
2022/05/31 12:30:52;;;;;;;6.47;3.08;;;18.70;99.90;;;;;;5049878;28;20159;-42
2022/05/31 12:33:44;;;;;;;8.45;3.45;;;16.70;99.90;;;;;;5048851;28;20036;-44
2022/05/31 12:36:14;;;;;;;;;;;16.80;99.90;;;;;;5081285;28;20106;-41
2022/05/31 12:39:04;;;;;;;7.15;3.33;;;16.70;99.90;;;;;;5049319;28;19924;-43
2022/05/31 12:41:34;;;;;;;7.13;3.25;;;16.60;99.90;;;;;;5049478;28;20056;-42
2022/05/31 12:44:00;;;;;;;5.97;2.80;;;16.60;99.90;;;;;;5050589;28;20041;-43
2022/05/31 12:46:34;;;;;;;6.25;3.25;;;16.70;99.90;;;;;;5084322;28;20159;-42
2022/05/31 12:49:19;;;;;;;8.63;3.45;;;18.50;99.90;;;;;;5052721;28;21083;-44
2022/05/31 12:54:54;;;;;;;7.45;3.90;;;16.60;99.90;;;;;;5030805;28;20576;-43
2022/05/31 13:00:34;;;;;;;8.45;3.63;;;16.40;99.90;;;;;;5048991;28;20052;-44
2022/05/31 13:03:25;;;;;;;6.63;3.42;;;18.30;99.90;;;;;;5033299;28;20043;-44
2022/05/31 13:06:00;;;;;;;8.68;3.70;;;16.50;99.90;;;;;;5030563;28;20037;-46
2022/05/31 13:08:51;;;;;;;7.78;3.60;;;18.60;99.90;;;;;;5030843;28;20112;-44
2022/05/31 13:20:28;;;;;;;15.20;4.00;;;16.50;99.90;;;;;;4993882;28;20188;-45
2022/05/31 13:23:03;;;;;;;8.55;3.47;;;16.50;99.90;;;;;;4992648;28;20081;-43
2022/05/31 13:25:48;;;;;;;9.07;4.03;;;16.30;99.90;;;;;;4992788;28;20053;-46
2022/05/31 13:28:35;;;;;;;12.10;5.28;;;16.50;99.90;;;;;;4992873;28;20170;-44
2022/05/31 13:31:13;;;;;;;11.07;4.78;;;16.40;99.90;;;;;;5006731;28;20053;-43
2022/05/31 13:33:40;;;;;;;11.07;4.90;;;16.40;99.90;;;;;;4994349;28;20089;-43
2022/05/31 13:36:19;;;;;;;9.63;4.93;;;16.40;99.90;;;;;;4993645;28;20077;-42
2022/05/31 13:38:46;;;;;;;8.40;4.82;;;16.30;99.90;;;;;;4995903;28;20095;-42
2022/05/31 13:41:15;;;;;;;9.07;5.15;;;16.10;99.90;;;;;;5007515;28;20122;-44
2022/05/31 13:43:57;;;;;;;9.80;4.63;;;17.30;99.90;;;;;;4995231;28;20105;-47
2022/05/31 13:46:45;;;;;;;7.30;4.03;;;16.20;99.90;;;;;;5007022;28;20582;-42
2022/05/31 13:49:17;;;;;;;12.40;4.47;;;17.50;99.90;;;;;;5011496;28;20073;-44
2022/05/31 13:51:56;;;;;;;8.95;4.57;;;16.90;99.90;;;;;;5039659;28;20052;-42
2022/05/31 13:54:26;;;;;;;6.53;4.25;;;17.30;99.90;;;;;;5052296;28;20182;-42
2022/05/31 13:56:57;;;;;;;9.88;4.78;;;17.50;99.90;;;;;;5053570;28;20128;-42
2022/05/31 13:59:51;;;;;;;8.38;4.60;;;17.80;99.90;;;;;;5036795;28;20056;-42
2022/05/31 14:02:21;;;;;;;7.72;4.45;;;17.90;99.90;;;;;;5083095;28;20048;-42